createdAt,value
2019-03-03T00:04:15.075Z,1.90
2019-03-03T00:09:22.285Z,1.90
2019-03-03T00:14:29.388Z,1.90
2019-03-03T00:19:36.467Z,1.90
2019-03-03T00:24:43.667Z,1.90
2019-03-03T00:29:50.850Z,1.80
2019-03-03T00:34:58.594Z,1.80
2019-03-03T00:40:22.810Z,1.90
2019-03-03T00:45:39.738Z,1.90
2019-03-03T00:51:04.229Z,1.90
2019-03-03T00:56:28.749Z,1.90
2019-03-03T01:01:54.724Z,2.00
2019-03-03T01:07:21.095Z,1.90
2019-03-03T01:12:57.515Z,1.90
2019-03-03T01:18:19.621Z,1.90
2019-03-03T01:23:48.552Z,1.70
2019-03-03T01:28:56.139Z,1.60
2019-03-03T01:34:03.372Z,1.60
2019-03-03T01:39:10.932Z,1.50
2019-03-03T01:44:18.204Z,1.40
2019-03-03T01:49:25.792Z,1.30
2019-03-03T01:54:32.933Z,1.10
2019-03-03T01:59:40.035Z,1.10
2019-03-03T02:04:47.244Z,1.20
2019-03-03T02:09:54.713Z,1.30
2019-03-03T02:15:01.905Z,1.30
2019-03-03T02:20:09.812Z,1.40
2019-03-03T02:25:16.992Z,1.40
2019-03-03T02:30:24.273Z,1.50
2019-03-03T02:35:31.688Z,1.50
2019-03-03T02:40:38.890Z,1.40
2019-03-03T02:45:46.289Z,1.30
2019-03-03T02:50:53.277Z,1.20
2019-03-03T02:56:00.597Z,1.00
2019-03-03T03:01:29.546Z,1.10
2019-03-03T03:06:59.501Z,1.00
2019-03-03T03:12:22.321Z,1.00
2019-03-03T03:17:51.386Z,0.90
2019-03-03T03:23:29.656Z,0.90
2019-03-03T03:29:01.293Z,1.00
2019-03-03T03:34:13.158Z,0.90
2019-03-03T03:39:45.441Z,1.00
2019-03-03T03:45:11.406Z,1.00
2019-03-03T03:50:25.327Z,1.00
2019-03-03T03:56:07.357Z,1.00
2019-03-03T04:01:36.443Z,1.00
2019-03-03T04:07:05.583Z,1.00
2019-03-03T04:12:47.088Z,1.00
2019-03-03T04:18:18.048Z,1.10
2019-03-03T04:23:35.156Z,1.10
2019-03-03T04:28:55.190Z,1.10
2019-03-03T04:34:17.598Z,1.20
2019-03-03T04:39:49.591Z,1.20
2019-03-03T04:45:12.209Z,1.20
2019-03-03T04:50:25.204Z,1.20
2019-03-03T04:55:51.165Z,1.20
2019-03-03T05:01:20.167Z,1.20
2019-03-03T05:06:33.713Z,1.30
2019-03-03T05:12:30.176Z,1.40
2019-03-03T05:17:48.653Z,1.40
2019-03-03T05:22:55.740Z,1.40
2019-03-03T05:28:02.936Z,1.40
2019-03-03T05:33:10.012Z,1.50
2019-03-03T05:38:17.116Z,1.50
2019-03-03T05:43:24.241Z,1.50
2019-03-03T05:48:31.361Z,1.60
2019-03-03T05:53:38.372Z,1.60
2019-03-03T05:58:45.448Z,1.60
2019-03-03T06:03:53.550Z,1.70
2019-03-03T06:09:00.915Z,1.70
2019-03-03T06:14:09.535Z,1.90
2019-03-03T06:19:17.046Z,1.90
2019-03-03T06:24:24.145Z,2.00
2019-03-03T06:29:31.248Z,2.10
2019-03-03T06:34:38.512Z,2.10
2019-03-03T06:39:45.649Z,2.20
2019-03-03T06:44:52.871Z,2.30
2019-03-03T06:50:00.002Z,2.40
2019-03-03T06:55:08.766Z,2.40
2019-03-03T07:00:19.252Z,2.50
2019-03-03T07:05:26.349Z,2.60
2019-03-03T07:10:33.520Z,2.60
2019-03-03T07:15:40.583Z,2.60
2019-03-03T07:20:47.664Z,2.70
2019-03-03T07:25:54.964Z,2.70
2019-03-03T07:31:02.049Z,2.80
2019-03-03T07:36:09.215Z,2.90
2019-03-03T07:41:16.504Z,3.10
2019-03-03T07:46:23.618Z,3.20
2019-03-03T07:51:31.464Z,3.30
2019-03-03T07:56:38.584Z,3.50
2019-03-03T08:01:45.795Z,3.50
2019-03-03T08:06:52.890Z,3.60
2019-03-03T08:11:59.968Z,3.40
2019-03-03T08:17:07.149Z,3.50
2019-03-03T08:22:14.212Z,3.40
2019-03-03T08:27:21.285Z,3.50
2019-03-03T08:32:28.393Z,3.50
2019-03-03T08:37:35.545Z,3.60
2019-03-03T08:42:50.783Z,3.70
2019-03-03T08:48:02.519Z,3.80
2019-03-03T08:53:40.829Z,3.90
2019-03-03T08:58:59.980Z,3.90
2019-03-03T09:04:16.792Z,3.80
2019-03-03T09:09:42.780Z,3.80
2019-03-03T09:15:02.262Z,3.80
2019-03-03T09:20:32.738Z,3.80
2019-03-03T09:25:50.073Z,4.00
2019-03-03T09:31:28.189Z,4.10
2019-03-03T09:36:45.661Z,4.30
2019-03-03T09:42:30.789Z,4.40
2019-03-03T09:48:08.908Z,4.40
2019-03-03T09:53:34.961Z,4.40
2019-03-03T09:58:59.539Z,4.50
2019-03-03T10:04:29.198Z,4.50
2019-03-03T10:09:51.667Z,4.70
2019-03-03T10:15:23.442Z,4.80
2019-03-03T10:20:41.650Z,4.80
2019-03-03T10:26:16.663Z,4.90
2019-03-03T10:31:48.079Z,5.00
2019-03-03T10:37:04.485Z,5.10
2019-03-03T10:42:42.592Z,5.10
2019-03-03T10:48:11.347Z,5.10
2019-03-03T10:53:43.159Z,5.10
2019-03-03T10:59:25.193Z,5.10
2019-03-03T11:04:47.770Z,5.00
2019-03-03T11:10:10.693Z,5.10
2019-03-03T11:15:43.242Z,5.20
2019-03-03T11:21:07.159Z,5.30
2019-03-03T11:26:27.337Z,5.40
2019-03-03T11:31:56.077Z,5.50
2019-03-03T11:37:27.862Z,5.60
2019-03-03T11:42:57.501Z,5.60
2019-03-03T11:48:23.758Z,5.60
2019-03-03T11:53:48.321Z,5.80
2019-03-03T11:59:10.687Z,5.80
2019-03-03T12:04:45.851Z,5.90
2019-03-03T12:10:27.227Z,6.00
2019-03-03T12:16:05.755Z,6.10
2019-03-03T12:21:31.688Z,6.10
2019-03-03T12:26:48.523Z,6.20
2019-03-03T12:32:03.158Z,6.20
2019-03-03T12:37:31.868Z,6.30
2019-03-03T12:43:00.729Z,6.40
2019-03-03T12:48:29.448Z,6.50
2019-03-03T12:53:59.060Z,6.70
2019-03-03T12:59:40.220Z,6.60
2019-03-03T13:05:04.708Z,6.80
2019-03-03T13:10:34.608Z,6.80
2019-03-03T13:16:01.021Z,6.90
2019-03-03T13:21:27.748Z,6.90
2019-03-03T13:27:00.039Z,6.90
2019-03-03T13:32:25.077Z,7.00
2019-03-03T13:37:49.770Z,7.10
2019-03-03T13:42:59.634Z,7.10
2019-03-03T13:48:07.027Z,7.20
2019-03-03T13:53:14.242Z,7.20
2019-03-03T13:58:22.165Z,7.30
2019-03-03T14:03:29.283Z,7.30
2019-03-03T14:08:36.374Z,7.40
2019-03-03T14:13:43.949Z,7.40
2019-03-03T14:18:51.153Z,7.50
2019-03-03T14:23:58.824Z,7.60
2019-03-03T14:29:06.929Z,7.50
2019-03-03T14:34:14.019Z,7.60
2019-03-03T14:39:21.309Z,7.60
2019-03-03T14:44:29.027Z,7.60
2019-03-03T14:49:36.828Z,7.50
2019-03-03T14:54:44.038Z,7.60
2019-03-03T14:59:51.225Z,7.60
2019-03-03T15:04:59.316Z,7.60
2019-03-03T15:10:06.869Z,7.60
2019-03-03T15:15:14.176Z,7.70
2019-03-03T15:20:21.159Z,7.70
2019-03-03T15:25:28.505Z,7.70
2019-03-03T15:30:35.733Z,7.80
2019-03-03T15:35:43.002Z,7.70
2019-03-03T15:40:50.118Z,7.80
2019-03-03T15:45:57.188Z,7.80
2019-03-03T15:51:04.357Z,7.80
2019-03-03T15:56:11.976Z,7.80
2019-03-03T16:01:21.460Z,7.80
2019-03-03T16:06:28.584Z,7.80
2019-03-03T16:11:35.701Z,7.90
2019-03-03T16:16:42.954Z,7.80
2019-03-03T16:21:53.492Z,7.80
2019-03-03T16:27:01.999Z,7.80
2019-03-03T16:32:09.377Z,7.90
2019-03-03T16:37:16.595Z,7.80
2019-03-03T16:42:23.715Z,7.90
2019-03-03T16:47:30.955Z,7.90
2019-03-03T16:52:38.348Z,7.80
2019-03-03T16:57:45.599Z,7.80
2019-03-03T17:02:52.701Z,7.80
2019-03-03T17:07:59.861Z,7.80
2019-03-03T17:13:07.621Z,7.90
2019-03-03T17:18:16.825Z,7.90
2019-03-03T17:23:24.086Z,7.90
2019-03-03T17:28:31.370Z,7.90
2019-03-03T17:33:38.468Z,7.90
2019-03-03T17:38:45.669Z,8.00
2019-03-03T17:43:52.778Z,8.00
2019-03-03T17:48:59.925Z,8.00
2019-03-03T17:54:07.186Z,7.90
2019-03-03T17:59:15.013Z,7.90
2019-03-03T18:04:22.481Z,7.90
2019-03-03T18:09:29.612Z,7.90
2019-03-03T18:14:36.804Z,7.90
2019-03-03T18:19:44.793Z,8.00
2019-03-03T18:24:52.357Z,8.00
2019-03-03T18:29:59.443Z,7.90
2019-03-03T18:35:06.738Z,7.90
2019-03-03T18:40:15.311Z,7.90
2019-03-03T18:45:22.471Z,7.80
2019-03-03T18:50:29.664Z,7.80
2019-03-03T18:55:37.207Z,7.90
2019-03-03T19:00:44.282Z,7.80
2019-03-03T19:05:55.760Z,7.90
2019-03-03T19:11:00.794Z,7.80
2019-03-03T19:16:08.354Z,7.80
2019-03-03T19:21:15.445Z,7.70
2019-03-03T19:26:22.590Z,7.70
2019-03-03T19:31:29.703Z,7.70
2019-03-03T19:36:36.825Z,7.70
2019-03-03T19:41:43.946Z,7.70
2019-03-03T19:46:52.198Z,7.60
2019-03-03T19:51:59.273Z,7.70
2019-03-03T19:57:06.866Z,7.60
2019-03-03T20:02:14.104Z,7.60
2019-03-03T20:07:21.192Z,7.60
2019-03-03T20:12:28.282Z,7.60
2019-03-03T20:17:35.371Z,7.60
2019-03-03T20:22:42.506Z,7.50
2019-03-03T20:27:50.217Z,7.50
2019-03-03T20:32:57.401Z,7.50
2019-03-03T20:38:04.542Z,7.50
2019-03-03T20:43:11.632Z,7.40
2019-03-03T20:48:18.617Z,7.40
2019-03-03T20:53:25.834Z,7.30
2019-03-03T20:58:32.924Z,7.30
2019-03-03T21:03:40.102Z,7.30
2019-03-03T21:08:47.188Z,7.20
2019-03-03T21:13:54.420Z,7.20
2019-03-03T21:19:01.653Z,7.20
2019-03-03T21:24:08.764Z,7.20
2019-03-03T21:29:15.852Z,7.20
2019-03-03T21:34:23.225Z,7.10
2019-03-03T21:39:49.069Z,7.20
2019-03-03T21:45:01.487Z,7.10
2019-03-03T21:50:11.368Z,7.10
2019-03-03T21:55:18.487Z,7.00
2019-03-03T22:00:30.622Z,7.00
2019-03-03T22:05:37.711Z,7.00
2019-03-03T22:10:45.233Z,7.00
2019-03-03T22:15:52.333Z,7.00
2019-03-03T22:20:59.937Z,7.00
2019-03-03T22:26:07.086Z,6.90
2019-03-03T22:31:14.164Z,6.90
2019-03-03T22:36:21.221Z,6.90
2019-03-03T22:41:28.325Z,6.90
2019-03-03T22:46:35.408Z,6.90
2019-03-03T22:51:42.511Z,6.90
2019-03-03T22:56:51.791Z,6.90
2019-03-03T23:01:58.996Z,6.90
2019-03-03T23:07:20.125Z,6.80
2019-03-03T23:12:49.116Z,6.80
2019-03-03T23:18:27.416Z,6.80
2019-03-03T23:24:11.887Z,6.80
2019-03-03T23:29:18.938Z,6.80
2019-03-03T23:34:26.416Z,6.80
2019-03-03T23:39:33.682Z,6.80
2019-03-03T23:44:40.782Z,6.70
2019-03-03T23:49:47.984Z,6.70
2019-03-03T23:54:55.301Z,6.70
